sensor_id;sensor_type;location;lat;lon;timestamp;P1;durP1;ratioP1;P2;durP2;ratioP2
7253;SDS011;4060;49.186;9.226;2024-02-15T00:00:41;5.68;;;3.95;;
7253;SDS011;4060;49.186;9.226;2024-02-15T00:03:11;4.75;;;4.25;;
7253;SDS011;4060;49.186;9.226;2024-02-15T00:05:41;5.32;;;4.20;;
7253;SDS011;4060;49.186;9.226;2024-02-15T00:08:15;4.10;;;3.70;;
7253;SDS011;4060;49.186;9.226;2024-02-15T00:10:46;4.78;;;4.38;;
7253;SDS011;4060;49.186;9.226;2024-02-15T00:13:15;5.88;;;4.93;;
7253;SDS011;4060;49.186;9.226;2024-02-15T00:15:45;4.88;;;4.07;;
7253;SDS011;4060;49.186;9.226;2024-02-15T00:18:16;4.75;;;3.67;;
7253;SDS011;4060;49.186;9.226;2024-02-15T00:20:47;4.18;;;3.78;;
7253;SDS011;4060;49.186;9.226;2024-02-15T00:23:20;3.90;;;3.55;;
7253;SDS011;4060;49.186;9.226;2024-02-15T00:25:50;5.93;;;3.97;;
7253;SDS011;4060;49.186;9.226;2024-02-15T00:28:20;4.50;;;4.10;;
7253;SDS011;4060;49.186;9.226;2024-02-15T00:30:50;4.05;;;3.65;;
7253;SDS011;4060;49.186;9.226;2024-02-15T00:33:20;5.53;;;4.53;;
7253;SDS011;4060;49.186;9.226;2024-02-15T00:35:49;5.07;;;4.63;;
7253;SDS011;4060;49.186;9.226;2024-02-15T00:38:22;5.40;;;4.30;;
7253;SDS011;4060;49.186;9.226;2024-02-15T00:40:52;5.40;;;4.82;;
7253;SDS011;4060;49.186;9.226;2024-02-15T00:43:22;6.05;;;4.90;;
7253;SDS011;4060;49.186;9.226;2024-02-15T00:45:51;4.40;;;4.00;;
7253;SDS011;4060;49.186;9.226;2024-02-15T00:48:20;6.20;;;4.50;;
7253;SDS011;4060;49.186;9.226;2024-02-15T00:50:55;6.22;;;3.78;;
7253;SDS011;4060;49.186;9.226;2024-02-15T00:53:27;5.10;;;4.05;;
7253;SDS011;4060;49.186;9.226;2024-02-15T00:55:57;5.13;;;4.20;;
7253;SDS011;4060;49.186;9.226;2024-02-15T00:58:26;4.75;;;3.72;;
7253;SDS011;4060;49.186;9.226;2024-02-15T01:00:56;4.15;;;3.72;;
7253;SDS011;4060;49.186;9.226;2024-02-15T01:03:26;4.32;;;3.70;;
7253;SDS011;4060;49.186;9.226;2024-02-15T01:05:55;3.83;;;3.53;;
7253;SDS011;4060;49.186;9.226;2024-02-15T01:08:27;4.78;;;3.88;;
7253;SDS011;4060;49.186;9.226;2024-02-15T01:10:56;4.60;;;3.80;;
7253;SDS011;4060;49.186;9.226;2024-02-15T01:13:26;4.18;;;3.78;;
7253;SDS011;4060;49.186;9.226;2024-02-15T01:15:56;3.65;;;3.33;;
7253;SDS011;4060;49.186;9.226;2024-02-15T01:18:27;3.17;;;2.95;;
7253;SDS011;4060;49.186;9.226;2024-02-15T01:20:58;3.92;;;3.20;;
7253;SDS011;4060;49.186;9.226;2024-02-15T01:23:31;4.70;;;3.05;;
7253;SDS011;4060;49.186;9.226;2024-02-15T01:26:02;5.15;;;3.25;;
7253;SDS011;4060;49.186;9.226;2024-02-15T01:28:33;5.07;;;3.50;;
7253;SDS011;4060;49.186;9.226;2024-02-15T01:31:03;4.40;;;3.40;;
7253;SDS011;4060;49.186;9.226;2024-02-15T01:33:34;4.55;;;3.28;;
7253;SDS011;4060;49.186;9.226;2024-02-15T01:36:05;3.55;;;2.83;;
7253;SDS011;4060;49.186;9.226;2024-02-15T01:38:37;3.20;;;2.90;;
7253;SDS011;4060;49.186;9.226;2024-02-15T01:41:07;3.67;;;2.88;;
7253;SDS011;4060;49.186;9.226;2024-02-15T01:43:37;3.22;;;2.92;;
7253;SDS011;4060;49.186;9.226;2024-02-15T01:46:07;3.85;;;3.25;;
7253;SDS011;4060;49.186;9.226;2024-02-15T01:48:38;3.42;;;3.13;;
7253;SDS011;4060;49.186;9.226;2024-02-15T01:51:09;3.45;;;3.15;;
7253;SDS011;4060;49.186;9.226;2024-02-15T01:53:42;3.38;;;2.95;;
7253;SDS011;4060;49.186;9.226;2024-02-15T01:56:13;3.22;;;2.88;;
7253;SDS011;4060;49.186;9.226;2024-02-15T01:58:46;4.05;;;3.10;;
7253;SDS011;4060;49.186;9.226;2024-02-15T02:01:17;4.18;;;2.88;;
7253;SDS011;4060;49.186;9.226;2024-02-15T02:03:47;4.05;;;3.30;;
7253;SDS011;4060;49.186;9.226;2024-02-15T02:06:17;3.83;;;2.65;;
7253;SDS011;4060;49.186;9.226;2024-02-15T02:08:48;3.95;;;3.10;;
7253;SDS011;4060;49.186;9.226;2024-02-15T02:11:18;3.42;;;2.63;;
7253;SDS011;4060;49.186;9.226;2024-02-15T02:13:48;4.13;;;3.67;;
7253;SDS011;4060;49.186;9.226;2024-02-15T02:16:24;4.32;;;3.70;;
7253;SDS011;4060;49.186;9.226;2024-02-15T02:18:55;3.63;;;3.20;;
7253;SDS011;4060;49.186;9.226;2024-02-15T02:21:24;3.67;;;3.28;;
7253;SDS011;4060;49.186;9.226;2024-02-15T02:23:57;3.50;;;3.00;;
7253;SDS011;4060;49.186;9.226;2024-02-15T02:26:30;3.47;;;3.17;;
7253;SDS011;4060;49.186;9.226;2024-02-15T02:29:00;3.10;;;2.80;;
7253;SDS011;4060;49.186;9.226;2024-02-15T02:31:32;4.25;;;3.40;;
7253;SDS011;4060;49.186;9.226;2024-02-15T02:34:02;3.60;;;3.25;;
7253;SDS011;4060;49.186;9.226;2024-02-15T02:36:32;3.60;;;3.03;;
7253;SDS011;4060;49.186;9.226;2024-02-15T02:39:02;3.35;;;2.65;;
7253;SDS011;4060;49.186;9.226;2024-02-15T02:41:35;3.70;;;2.88;;
7253;SDS011;4060;49.186;9.226;2024-02-15T02:44:06;5.45;;;3.38;;
7253;SDS011;4060;49.186;9.226;2024-02-15T02:46:36;4.47;;;3.15;;
7253;SDS011;4060;49.186;9.226;2024-02-15T02:49:09;4.15;;;3.50;;
7253;SDS011;4060;49.186;9.226;2024-02-15T02:51:39;3.47;;;3.17;;
7253;SDS011;4060;49.186;9.226;2024-02-15T02:54:09;5.35;;;3.20;;
7253;SDS011;4060;49.186;9.226;2024-02-15T02:56:46;3.47;;;3.03;;
7253;SDS011;4060;49.186;9.226;2024-02-15T02:59:16;4.10;;;3.25;;
7253;SDS011;4060;49.186;9.226;2024-02-15T03:01:44;3.42;;;2.97;;
7253;SDS011;4060;49.186;9.226;2024-02-15T03:04:15;3.75;;;2.85;;
7253;SDS011;4060;49.186;9.226;2024-02-15T03:06:44;3.15;;;2.85;;
7253;SDS011;4060;49.186;9.226;2024-02-15T03:09:14;3.58;;;3.00;;
7253;SDS011;4060;49.186;9.226;2024-02-15T03:11:49;3.20;;;2.90;;
7253;SDS011;4060;49.186;9.226;2024-02-15T03:14:19;4.40;;;3.15;;
7253;SDS011;4060;49.186;9.226;2024-02-15T03:16:48;4.70;;;3.10;;
7253;SDS011;4060;49.186;9.226;2024-02-15T03:19:18;3.70;;;3.22;;
7253;SDS011;4060;49.186;9.226;2024-02-15T03:21:48;6.28;;;3.33;;
7253;SDS011;4060;49.186;9.226;2024-02-15T03:24:19;4.15;;;3.28;;
7253;SDS011;4060;49.186;9.226;2024-02-15T03:26:52;3.72;;;3.20;;
7253;SDS011;4060;49.186;9.226;2024-02-15T03:29:22;4.05;;;3.35;;
7253;SDS011;4060;49.186;9.226;2024-02-15T03:31:52;4.88;;;3.10;;
7253;SDS011;4060;49.186;9.226;2024-02-15T03:34:23;5.55;;;3.47;;
7253;SDS011;4060;49.186;9.226;2024-02-15T03:36:52;4.68;;;3.53;;
7253;SDS011;4060;49.186;9.226;2024-02-15T03:39:22;3.88;;;3.40;;
7253;SDS011;4060;49.186;9.226;2024-02-15T03:41:54;4.45;;;3.10;;
7253;SDS011;4060;49.186;9.226;2024-02-15T03:44:24;3.33;;;3.03;;
7253;SDS011;4060;49.186;9.226;2024-02-15T03:46:54;3.20;;;2.90;;
7253;SDS011;4060;49.186;9.226;2024-02-15T03:49:25;3.13;;;2.63;;
7253;SDS011;4060;49.186;9.226;2024-02-15T03:51:58;3.85;;;3.22;;
7253;SDS011;4060;49.186;9.226;2024-02-15T03:54:27;3.30;;;3.00;;
7253;SDS011;4060;49.186;9.226;2024-02-15T03:56:59;4.40;;;2.95;;
7253;SDS011;4060;49.186;9.226;2024-02-15T03:59:29;3.65;;;3.35;;
7253;SDS011;4060;49.186;9.226;2024-02-15T04:01:58;3.15;;;2.85;;
7253;SDS011;4060;49.186;9.226;2024-02-15T04:04:30;4.32;;;3.42;;
7253;SDS011;4060;49.186;9.226;2024-02-15T04:07:00;3.00;;;2.70;;
7253;SDS011;4060;49.186;9.226;2024-02-15T04:09:32;3.38;;;2.97;;
7253;SDS011;4060;49.186;9.226;2024-02-15T04:12:05;3.35;;;3.05;;
7253;SDS011;4060;49.186;9.226;2024-02-15T04:14:34;3.67;;;3.00;;
7253;SDS011;4060;49.186;9.226;2024-02-15T04:17:04;3.65;;;3.35;;
7253;SDS011;4060;49.186;9.226;2024-02-15T04:19:34;2.97;;;2.78;;
7253;SDS011;4060;49.186;9.226;2024-02-15T04:22:04;3.35;;;3.05;;
7253;SDS011;4060;49.186;9.226;2024-02-15T04:24:35;4.50;;;3.15;;
7253;SDS011;4060;49.186;9.226;2024-02-15T04:27:08;3.55;;;2.70;;
7253;SDS011;4060;49.186;9.226;2024-02-15T04:29:40;2.83;;;2.42;;
7253;SDS011;4060;49.186;9.226;2024-02-15T04:32:10;5.10;;;3.22;;
7253;SDS011;4060;49.186;9.226;2024-02-15T04:34:40;3.30;;;2.72;;
7253;SDS011;4060;49.186;9.226;2024-02-15T04:37:11;3.53;;;2.92;;
7253;SDS011;4060;49.186;9.226;2024-02-15T04:39:43;3.28;;;2.97;;
7253;SDS011;4060;49.186;9.226;2024-02-15T04:42:16;3.15;;;2.90;;
7253;SDS011;4060;49.186;9.226;2024-02-15T04:44:46;4.30;;;2.45;;
7253;SDS011;4060;49.186;9.226;2024-02-15T04:47:19;2.92;;;2.63;;
7253;SDS011;4060;49.186;9.226;2024-02-15T04:49:49;3.00;;;2.67;;
7253;SDS011;4060;49.186;9.226;2024-02-15T04:52:19;2.97;;;2.67;;
7253;SDS011;4060;49.186;9.226;2024-02-15T04:54:54;3.55;;;3.17;;
7253;SDS011;4060;49.186;9.226;2024-02-15T04:57:27;3.17;;;2.47;;
7253;SDS011;4060;49.186;9.226;2024-02-15T04:59:56;3.47;;;3.15;;
7253;SDS011;4060;49.186;9.226;2024-02-15T05:02:26;4.55;;;2.92;;
7253;SDS011;4060;49.186;9.226;2024-02-15T05:04:56;3.28;;;2.97;;
7253;SDS011;4060;49.186;9.226;2024-02-15T05:07:25;3.15;;;2.80;;
7253;SDS011;4060;49.186;9.226;2024-02-15T05:09:55;3.25;;;2.72;;
7253;SDS011;4060;49.186;9.226;2024-02-15T05:12:28;3.45;;;2.70;;
7253;SDS011;4060;49.186;9.226;2024-02-15T05:14:58;2.60;;;2.40;;
7253;SDS011;4060;49.186;9.226;2024-02-15T05:17:28;5.15;;;3.20;;
7253;SDS011;4060;49.186;9.226;2024-02-15T05:19:57;3.08;;;2.78;;
7253;SDS011;4060;49.186;9.226;2024-02-15T05:22:27;3.50;;;2.45;;
7253;SDS011;4060;49.186;9.226;2024-02-15T05:24:59;3.08;;;2.58;;
7253;SDS011;4060;49.186;9.226;2024-02-15T05:27:33;3.90;;;2.85;;
7253;SDS011;4060;49.186;9.226;2024-02-15T05:30:03;2.78;;;2.58;;
7253;SDS011;4060;49.186;9.226;2024-02-15T05:32:34;2.83;;;2.42;;
7253;SDS011;4060;49.186;9.226;2024-02-15T05:35:09;2.97;;;2.58;;
7253;SDS011;4060;49.186;9.226;2024-02-15T05:37:39;3.13;;;2.45;;
7253;SDS011;4060;49.186;9.226;2024-02-15T05:40:08;2.78;;;2.20;;
7253;SDS011;4060;49.186;9.226;2024-02-15T05:42:43;4.53;;;2.60;;
7253;SDS011;4060;49.186;9.226;2024-02-15T05:48:03;3.20;;;2.50;;
7253;SDS011;4060;49.186;9.226;2024-02-15T05:50:38;3.20;;;2.50;;
7253;SDS011;4060;49.186;9.226;2024-02-15T05:53:08;3.35;;;3.05;;
7253;SDS011;4060;49.186;9.226;2024-02-15T05:55:39;4.43;;;3.35;;
7253;SDS011;4060;49.186;9.226;2024-02-15T05:58:12;3.35;;;3.05;;
7253;SDS011;4060;49.186;9.226;2024-02-15T06:00:42;3.50;;;3.05;;
7253;SDS011;4060;49.186;9.226;2024-02-15T06:03:16;3.60;;;3.30;;
7253;SDS011;4060;49.186;9.226;2024-02-15T06:05:48;4.78;;;3.45;;
7253;SDS011;4060;49.186;9.226;2024-02-15T06:08:18;3.78;;;3.00;;
7253;SDS011;4060;49.186;9.226;2024-02-15T06:10:49;4.28;;;2.65;;
7253;SDS011;4060;49.186;9.226;2024-02-15T06:13:21;4.25;;;2.67;;
7253;SDS011;4060;49.186;9.226;2024-02-15T06:15:52;3.95;;;2.78;;
7253;SDS011;4060;49.186;9.226;2024-02-15T06:18:24;4.10;;;2.50;;
7253;SDS011;4060;49.186;9.226;2024-02-15T06:20:55;2.60;;;2.40;;
7253;SDS011;4060;49.186;9.226;2024-02-15T06:23:26;2.90;;;2.60;;
7253;SDS011;4060;49.186;9.226;2024-02-15T06:25:57;2.30;;;2.10;;
7253;SDS011;4060;49.186;9.226;2024-02-15T06:28:29;3.63;;;2.70;;
7253;SDS011;4060;49.186;9.226;2024-02-15T06:31:28;3.28;;;2.25;;
7253;SDS011;4060;49.186;9.226;2024-02-15T06:34:15;2.85;;;2.50;;
7253;SDS011;4060;49.186;9.226;2024-02-15T06:37:01;2.72;;;2.20;;
7253;SDS011;4060;49.186;9.226;2024-02-15T06:39:48;2.53;;;2.08;;
7253;SDS011;4060;49.186;9.226;2024-02-15T06:42:18;2.60;;;2.40;;
7253;SDS011;4060;49.186;9.226;2024-02-15T06:44:50;2.92;;;2.60;;
7253;SDS011;4060;49.186;9.226;2024-02-15T06:47:21;2.53;;;2.33;;
7253;SDS011;4060;49.186;9.226;2024-02-15T06:49:51;2.92;;;2.45;;
7253;SDS011;4060;49.186;9.226;2024-02-15T06:52:21;2.70;;;2.30;;
7253;SDS011;4060;49.186;9.226;2024-02-15T06:54:52;3.50;;;2.38;;
7253;SDS011;4060;49.186;9.226;2024-02-15T06:57:22;2.75;;;2.05;;
7253;SDS011;4060;49.186;9.226;2024-02-15T06:59:53;2.20;;;1.95;;
7253;SDS011;4060;49.186;9.226;2024-02-15T07:02:23;2.25;;;2.05;;
7253;SDS011;4060;49.186;9.226;2024-02-15T07:04:53;2.92;;;2.22;;
7253;SDS011;4060;49.186;9.226;2024-02-15T07:07:23;2.30;;;2.10;;
7253;SDS011;4060;49.186;9.226;2024-02-15T07:09:54;3.20;;;2.17;;
7253;SDS011;4060;49.186;9.226;2024-02-15T07:12:23;2.15;;;1.95;;
7253;SDS011;4060;49.186;9.226;2024-02-15T07:14:55;3.60;;;1.98;;
7253;SDS011;4060;49.186;9.226;2024-02-15T07:17:27;2.13;;;1.75;;
7253;SDS011;4060;49.186;9.226;2024-02-15T07:19:57;3.53;;;2.05;;
7253;SDS011;4060;49.186;9.226;2024-02-15T07:22:26;2.10;;;1.90;;
7253;SDS011;4060;49.186;9.226;2024-02-15T07:24:57;2.55;;;1.90;;
7253;SDS011;4060;49.186;9.226;2024-02-15T07:27:28;2.10;;;1.90;;
7253;SDS011;4060;49.186;9.226;2024-02-15T07:30:03;2.33;;;1.95;;
7253;SDS011;4060;49.186;9.226;2024-02-15T07:32:34;2.55;;;1.90;;
7253;SDS011;4060;49.186;9.226;2024-02-15T07:35:04;2.97;;;2.17;;
7253;SDS011;4060;49.186;9.226;2024-02-15T07:37:35;2.67;;;1.85;;
7253;SDS011;4060;49.186;9.226;2024-02-15T07:40:05;3.30;;;2.30;;
7253;SDS011;4060;49.186;9.226;2024-02-15T07:42:35;2.40;;;2.20;;
7253;SDS011;4060;49.186;9.226;2024-02-15T07:45:09;3.15;;;1.77;;
7253;SDS011;4060;49.186;9.226;2024-02-15T07:47:39;4.80;;;2.10;;
7253;SDS011;4060;49.186;9.226;2024-02-15T07:50:10;4.35;;;1.83;;
7253;SDS011;4060;49.186;9.226;2024-02-15T07:52:46;1.73;;;1.63;;
7253;SDS011;4060;49.186;9.226;2024-02-15T07:55:17;2.97;;;1.90;;
7253;SDS011;4060;49.186;9.226;2024-02-15T07:57:48;2.55;;;1.75;;
7253;SDS011;4060;49.186;9.226;2024-02-15T08:00:22;3.25;;;1.90;;
7253;SDS011;4060;49.186;9.226;2024-02-15T08:02:54;2.03;;;1.75;;
7253;SDS011;4060;49.186;9.226;2024-02-15T08:05:23;3.03;;;1.95;;
7253;SDS011;4060;49.186;9.226;2024-02-15T08:07:53;1.40;;;1.30;;
7253;SDS011;4060;49.186;9.226;2024-02-15T08:10:24;2.35;;;2.05;;
7253;SDS011;4060;49.186;9.226;2024-02-15T08:12:54;2.17;;;1.90;;
7253;SDS011;4060;49.186;9.226;2024-02-15T08:15:28;1.92;;;1.73;;
7253;SDS011;4060;49.186;9.226;2024-02-15T08:17:59;3.28;;;1.90;;
7253;SDS011;4060;49.186;9.226;2024-02-15T08:20:31;2.08;;;1.65;;
7253;SDS011;4060;49.186;9.226;2024-02-15T08:23:01;2.50;;;1.50;;
7253;SDS011;4060;49.186;9.226;2024-02-15T08:25:31;1.63;;;1.52;;
7253;SDS011;4060;49.186;9.226;2024-02-15T08:28:04;2.53;;;1.85;;
7253;SDS011;4060;49.186;9.226;2024-02-15T08:30:36;2.72;;;2.03;;
7253;SDS011;4060;49.186;9.226;2024-02-15T08:33:06;2.17;;;1.92;;
7253;SDS011;4060;49.186;9.226;2024-02-15T08:35:38;2.20;;;2.00;;
7253;SDS011;4060;49.186;9.226;2024-02-15T08:38:08;1.75;;;1.65;;
7253;SDS011;4060;49.186;9.226;2024-02-15T08:40:38;2.47;;;1.75;;
7253;SDS011;4060;49.186;9.226;2024-02-15T08:43:08;2.20;;;1.80;;
7253;SDS011;4060;49.186;9.226;2024-02-15T08:45:41;2.33;;;1.83;;
7253;SDS011;4060;49.186;9.226;2024-02-15T08:48:14;3.03;;;2.13;;
7253;SDS011;4060;49.186;9.226;2024-02-15T08:50:43;2.67;;;1.73;;
7253;SDS011;4060;49.186;9.226;2024-02-15T08:53:13;2.95;;;1.80;;
7253;SDS011;4060;49.186;9.226;2024-02-15T08:55:45;2.47;;;1.60;;
7253;SDS011;4060;49.186;9.226;2024-02-15T08:58:14;2.45;;;1.80;;
7253;SDS011;4060;49.186;9.226;2024-02-15T09:00:46;2.00;;;1.90;;
7253;SDS011;4060;49.186;9.226;2024-02-15T09:03:15;3.40;;;1.90;;
7253;SDS011;4060;49.186;9.226;2024-02-15T09:05:45;2.17;;;1.60;;
7253;SDS011;4060;49.186;9.226;2024-02-15T09:08:15;3.00;;;1.75;;
7253;SDS011;4060;49.186;9.226;2024-02-15T09:10:47;2.72;;;1.60;;
7253;SDS011;4060;49.186;9.226;2024-02-15T09:13:18;3.35;;;1.45;;
7253;SDS011;4060;49.186;9.226;2024-02-15T09:15:51;4.05;;;1.55;;
7253;SDS011;4060;49.186;9.226;2024-02-15T09:18:21;1.63;;;1.52;;
7253;SDS011;4060;49.186;9.226;2024-02-15T09:20:50;1.85;;;1.60;;
7253;SDS011;4060;49.186;9.226;2024-02-15T09:23:21;2.40;;;1.35;;
7253;SDS011;4060;49.186;9.226;2024-02-15T09:25:52;1.70;;;1.50;;
7253;SDS011;4060;49.186;9.226;2024-02-15T09:28:21;4.50;;;2.03;;
7253;SDS011;4060;49.186;9.226;2024-02-15T09:30:53;3.95;;;1.75;;
7253;SDS011;4060;49.186;9.226;2024-02-15T09:33:25;2.22;;;1.55;;
7253;SDS011;4060;49.186;9.226;2024-02-15T09:35:55;3.65;;;1.75;;
7253;SDS011;4060;49.186;9.226;2024-02-15T09:38:25;2.75;;;1.50;;
7253;SDS011;4060;49.186;9.226;2024-02-15T09:40:55;3.28;;;1.95;;
7253;SDS011;4060;49.186;9.226;2024-02-15T09:43:24;3.13;;;1.40;;
7253;SDS011;4060;49.186;9.226;2024-02-15T09:45:57;1.90;;;1.38;;
7253;SDS011;4060;49.186;9.226;2024-02-15T09:48:30;2.92;;;1.52;;
7253;SDS011;4060;49.186;9.226;2024-02-15T09:51:02;3.40;;;1.58;;
7253;SDS011;4060;49.186;9.226;2024-02-15T09:53:35;3.03;;;1.55;;
7253;SDS011;4060;49.186;9.226;2024-02-15T09:56:05;2.53;;;1.50;;
7253;SDS011;4060;49.186;9.226;2024-02-15T09:58:37;3.28;;;1.52;;
7253;SDS011;4060;49.186;9.226;2024-02-15T10:01:09;2.65;;;1.77;;
7253;SDS011;4060;49.186;9.226;2024-02-15T10:03:40;4.10;;;1.42;;
7253;SDS011;4060;49.186;9.226;2024-02-15T10:06:10;5.18;;;2.00;;
7253;SDS011;4060;49.186;9.226;2024-02-15T10:08:40;2.03;;;1.60;;
7253;SDS011;4060;49.186;9.226;2024-02-15T10:11:10;2.88;;;1.80;;
7253;SDS011;4060;49.186;9.226;2024-02-15T10:13:40;2.25;;;1.48;;
7253;SDS011;4060;49.186;9.226;2024-02-15T10:16:18;3.75;;;1.52;;
7253;SDS011;4060;49.186;9.226;2024-02-15T10:18:51;2.10;;;1.45;;
7253;SDS011;4060;49.186;9.226;2024-02-15T10:21:26;3.13;;;1.50;;
7253;SDS011;4060;49.186;9.226;2024-02-15T10:24:06;4.15;;;1.42;;
7253;SDS011;4060;49.186;9.226;2024-02-15T10:26:37;2.85;;;1.65;;
7253;SDS011;4060;49.186;9.226;2024-02-15T10:29:08;3.33;;;1.40;;
7253;SDS011;4060;49.186;9.226;2024-02-15T10:31:51;3.00;;;1.83;;
7253;SDS011;4060;49.186;9.226;2024-02-15T10:34:23;1.73;;;1.25;;
7253;SDS011;4060;49.186;9.226;2024-02-15T10:36:55;1.55;;;1.25;;
7253;SDS011;4060;49.186;9.226;2024-02-15T10:39:40;3.05;;;1.50;;
7253;SDS011;4060;49.186;9.226;2024-02-15T10:42:10;1.90;;;1.60;;
7253;SDS011;4060;49.186;9.226;2024-02-15T10:44:41;2.80;;;1.42;;
7253;SDS011;4060;49.186;9.226;2024-02-15T10:47:14;2.90;;;1.50;;
7253;SDS011;4060;49.186;9.226;2024-02-15T10:49:46;3.28;;;1.52;;
7253;SDS011;4060;49.186;9.226;2024-02-15T10:52:15;2.08;;;1.20;;
7253;SDS011;4060;49.186;9.226;2024-02-15T10:54:46;2.63;;;1.10;;
7253;SDS011;4060;49.186;9.226;2024-02-15T10:57:21;3.40;;;1.45;;
7253;SDS011;4060;49.186;9.226;2024-02-15T10:59:55;1.52;;;1.20;;
7253;SDS011;4060;49.186;9.226;2024-02-15T11:02:29;2.03;;;1.25;;
7253;SDS011;4060;49.186;9.226;2024-02-15T11:05:03;2.13;;;1.20;;
7253;SDS011;4060;49.186;9.226;2024-02-15T11:07:36;2.47;;;1.30;;
7253;SDS011;4060;49.186;9.226;2024-02-15T11:10:07;1.98;;;1.50;;
7253;SDS011;4060;49.186;9.226;2024-02-15T11:12:43;2.25;;;1.30;;
7253;SDS011;4060;49.186;9.226;2024-02-15T11:15:18;2.00;;;1.30;;
7253;SDS011;4060;49.186;9.226;2024-02-15T11:21:17;1.10;;;1.00;;
7253;SDS011;4060;49.186;9.226;2024-02-15T11:26:57;1.45;;;1.00;;
7253;SDS011;4060;49.186;9.226;2024-02-15T11:35:11;2.85;;;1.23;;
7253;SDS011;4060;49.186;9.226;2024-02-15T11:37:54;4.00;;;1.23;;
7253;SDS011;4060;49.186;9.226;2024-02-15T11:46:32;2.50;;;1.35;;
7253;SDS011;4060;49.186;9.226;2024-02-15T11:49:02;1.27;;;1.17;;
7253;SDS011;4060;49.186;9.226;2024-02-15T11:51:36;1.63;;;0.93;;
7253;SDS011;4060;49.186;9.226;2024-02-15T11:54:08;2.72;;;1.15;;
7253;SDS011;4060;49.186;9.226;2024-02-15T11:56:52;1.33;;;0.82;;
7253;SDS011;4060;49.186;9.226;2024-02-15T11:59:39;2.25;;;1.25;;
7253;SDS011;4060;49.186;9.226;2024-02-15T12:02:42;3.20;;;1.25;;
7253;SDS011;4060;49.186;9.226;2024-02-15T12:05:28;1.08;;;0.98;;
7253;SDS011;4060;49.186;9.226;2024-02-15T12:08:15;2.58;;;1.00;;
7253;SDS011;4060;49.186;9.226;2024-02-15T12:11:01;2.72;;;1.10;;
7253;SDS011;4060;49.186;9.226;2024-02-15T12:13:50;1.50;;;1.00;;
7253;SDS011;4060;49.186;9.226;2024-02-15T12:16:36;1.63;;;1.08;;
7253;SDS011;4060;49.186;9.226;2024-02-15T12:19:22;1.65;;;1.02;;
7253;SDS011;4060;49.186;9.226;2024-02-15T12:21:53;1.92;;;1.08;;
7253;SDS011;4060;49.186;9.226;2024-02-15T12:24:27;1.15;;;1.00;;
7253;SDS011;4060;49.186;9.226;2024-02-15T12:27:00;1.02;;;0.93;;
7253;SDS011;4060;49.186;9.226;2024-02-15T12:29:31;2.33;;;1.10;;
7253;SDS011;4060;49.186;9.226;2024-02-15T12:32:01;1.73;;;0.90;;
7253;SDS011;4060;49.186;9.226;2024-02-15T12:34:31;2.40;;;1.00;;
7253;SDS011;4060;49.186;9.226;2024-02-15T12:37:07;1.70;;;1.08;;
7253;SDS011;4060;49.186;9.226;2024-02-15T12:39:39;0.73;;;0.73;;
7253;SDS011;4060;49.186;9.226;2024-02-15T12:42:09;2.00;;;1.10;;
7253;SDS011;4060;49.186;9.226;2024-02-15T12:44:44;1.40;;;1.13;;
7253;SDS011;4060;49.186;9.226;2024-02-15T12:47:19;1.48;;;1.00;;
7253;SDS011;4060;49.186;9.226;2024-02-15T12:49:51;3.00;;;1.02;;
7253;SDS011;4060;49.186;9.226;2024-02-15T12:52:34;1.27;;;1.00;;
7253;SDS011;4060;49.186;9.226;2024-02-15T12:55:15;1.25;;;0.82;;
7253;SDS011;4060;49.186;9.226;2024-02-15T12:57:47;1.67;;;0.90;;
7253;SDS011;4060;49.186;9.226;2024-02-15T13:00:18;1.15;;;1.00;;
7253;SDS011;4060;49.186;9.226;2024-02-15T13:02:49;2.78;;;0.90;;
7253;SDS011;4060;49.186;9.226;2024-02-15T13:05:19;1.67;;;1.10;;
7253;SDS011;4060;49.186;9.226;2024-02-15T13:07:49;1.83;;;1.15;;
7253;SDS011;4060;49.186;9.226;2024-02-15T13:10:23;2.67;;;0.90;;
7253;SDS011;4060;49.186;9.226;2024-02-15T13:12:53;3.33;;;1.17;;
7253;SDS011;4060;49.186;9.226;2024-02-15T13:15:24;3.65;;;1.17;;
7253;SDS011;4060;49.186;9.226;2024-02-15T13:18:02;1.33;;;0.88;;
7253;SDS011;4060;49.186;9.226;2024-02-15T13:20:35;0.95;;;0.90;;
7253;SDS011;4060;49.186;9.226;2024-02-15T13:23:05;3.83;;;1.17;;
7253;SDS011;4060;49.186;9.226;2024-02-15T13:25:43;2.47;;;1.15;;
7253;SDS011;4060;49.186;9.226;2024-02-15T13:28:12;1.13;;;0.88;;
7253;SDS011;4060;49.186;9.226;2024-02-15T13:30:42;2.33;;;1.17;;
7253;SDS011;4060;49.186;9.226;2024-02-15T13:33:12;2.08;;;1.02;;
7253;SDS011;4060;49.186;9.226;2024-02-15T13:35:55;1.27;;;0.85;;
7253;SDS011;4060;49.186;9.226;2024-02-15T13:38:26;1.90;;;1.20;;
7253;SDS011;4060;49.186;9.226;2024-02-15T13:40:58;1.95;;;0.98;;
7253;SDS011;4060;49.186;9.226;2024-02-15T13:43:29;2.13;;;1.05;;
7253;SDS011;4060;49.186;9.226;2024-02-15T13:45:59;2.03;;;1.00;;
7253;SDS011;4060;49.186;9.226;2024-02-15T13:48:29;2.63;;;1.08;;
7253;SDS011;4060;49.186;9.226;2024-02-15T13:51:05;1.65;;;0.98;;
7253;SDS011;4060;49.186;9.226;2024-02-15T13:53:35;1.30;;;0.82;;
7253;SDS011;4060;49.186;9.226;2024-02-15T13:56:07;1.63;;;0.93;;
7253;SDS011;4060;49.186;9.226;2024-02-15T13:58:37;2.05;;;1.13;;
7253;SDS011;4060;49.186;9.226;2024-02-15T14:01:06;1.27;;;0.98;;
7253;SDS011;4060;49.186;9.226;2024-02-15T14:03:41;1.55;;;1.05;;
7253;SDS011;4060;49.186;9.226;2024-02-15T14:06:12;1.63;;;1.08;;
7253;SDS011;4060;49.186;9.226;2024-02-15T14:08:42;1.50;;;1.08;;
7253;SDS011;4060;49.186;9.226;2024-02-15T14:11:15;1.45;;;1.20;;
7253;SDS011;4060;49.186;9.226;2024-02-15T14:13:44;1.55;;;1.10;;
7253;SDS011;4060;49.186;9.226;2024-02-15T14:16:14;1.73;;;0.90;;
7253;SDS011;4060;49.186;9.226;2024-02-15T14:18:43;2.58;;;1.00;;
7253;SDS011;4060;49.186;9.226;2024-02-15T14:21:14;2.13;;;1.10;;
7253;SDS011;4060;49.186;9.226;2024-02-15T14:23:44;3.38;;;1.48;;
7253;SDS011;4060;49.186;9.226;2024-02-15T14:26:17;1.83;;;0.90;;
7253;SDS011;4060;49.186;9.226;2024-02-15T14:28:51;2.10;;;1.30;;
7253;SDS011;4060;49.186;9.226;2024-02-15T14:31:21;1.17;;;0.90;;
7253;SDS011;4060;49.186;9.226;2024-02-15T14:34:06;2.25;;;1.02;;
7253;SDS011;4060;49.186;9.226;2024-02-15T14:36:36;3.47;;;0.90;;
7253;SDS011;4060;49.186;9.226;2024-02-15T14:39:06;1.05;;;0.90;;
7253;SDS011;4060;49.186;9.226;2024-02-15T14:41:38;1.80;;;0.98;;
7253;SDS011;4060;49.186;9.226;2024-02-15T14:44:09;1.95;;;0.90;;
7253;SDS011;4060;49.186;9.226;2024-02-15T14:46:40;1.52;;;0.98;;
7253;SDS011;4060;49.186;9.226;2024-02-15T14:49:10;1.63;;;1.20;;
7253;SDS011;4060;49.186;9.226;2024-02-15T14:51:39;3.50;;;1.10;;
7253;SDS011;4060;49.186;9.226;2024-02-15T14:54:08;1.60;;;0.95;;
7253;SDS011;4060;49.186;9.226;2024-02-15T14:56:41;1.73;;;1.10;;
7253;SDS011;4060;49.186;9.226;2024-02-15T14:59:11;0.93;;;0.77;;
7253;SDS011;4060;49.186;9.226;2024-02-15T15:01:41;1.80;;;0.90;;
7253;SDS011;4060;49.186;9.226;2024-02-15T15:04:12;1.92;;;1.52;;
7253;SDS011;4060;49.186;9.226;2024-02-15T15:06:44;2.20;;;1.10;;
7253;SDS011;4060;49.186;9.226;2024-02-15T15:09:30;2.28;;;0.98;;
7253;SDS011;4060;49.186;9.226;2024-02-15T15:12:18;2.42;;;1.10;;
7253;SDS011;4060;49.186;9.226;2024-02-15T15:15:04;2.85;;;1.13;;
7253;SDS011;4060;49.186;9.226;2024-02-15T15:17:37;2.70;;;1.00;;
7253;SDS011;4060;49.186;9.226;2024-02-15T15:20:07;6.63;;;1.60;;
7253;SDS011;4060;49.186;9.226;2024-02-15T15:22:37;3.97;;;1.38;;
7253;SDS011;4060;49.186;9.226;2024-02-15T15:25:08;5.72;;;1.40;;
7253;SDS011;4060;49.186;9.226;2024-02-15T15:27:40;4.68;;;1.50;;
7253;SDS011;4060;49.186;9.226;2024-02-15T15:30:10;5.45;;;1.35;;
7253;SDS011;4060;49.186;9.226;2024-02-15T15:32:42;3.20;;;1.45;;
7253;SDS011;4060;49.186;9.226;2024-02-15T15:35:12;1.42;;;1.30;;
7253;SDS011;4060;49.186;9.226;2024-02-15T15:37:44;3.50;;;1.40;;
7253;SDS011;4060;49.186;9.226;2024-02-15T15:40:17;1.55;;;1.17;;
7253;SDS011;4060;49.186;9.226;2024-02-15T15:42:49;1.27;;;1.08;;
7253;SDS011;4060;49.186;9.226;2024-02-15T15:45:19;2.80;;;1.35;;
7253;SDS011;4060;49.186;9.226;2024-02-15T15:47:48;2.70;;;1.35;;
7253;SDS011;4060;49.186;9.226;2024-02-15T15:50:19;1.85;;;1.10;;
7253;SDS011;4060;49.186;9.226;2024-02-15T15:52:49;2.75;;;1.10;;
7253;SDS011;4060;49.186;9.226;2024-02-15T15:55:19;1.83;;;1.20;;
7253;SDS011;4060;49.186;9.226;2024-02-15T15:57:51;2.72;;;1.17;;
7253;SDS011;4060;49.186;9.226;2024-02-15T16:00:21;2.10;;;1.00;;
7253;SDS011;4060;49.186;9.226;2024-02-15T16:02:59;2.45;;;1.20;;
7253;SDS011;4060;49.186;9.226;2024-02-15T16:05:32;1.52;;;1.00;;